Time;durP1;ratioP1;P1;durP2;ratioP2;P2;SDS_P1;SDS_P2;PMS_P1;PMS_P2;Temp;Humidity;BMP_temperature;BMP_pressure;BME280_temperature;BME280_humidity;BME280_pressure;Samples;Min_cycle;Max_cycle;Signal;HPM_P1;HPM_P2
2022/08/18 00:01:47;;;;;;;;;;;22.40;91.10;;;;;;5058299;28;20003;-96
2022/08/18 00:04:13;;;;;;;;;;;22.40;90.90;;;;;;5075856;28;19939;-96
2022/08/18 00:06:40;;;;;;;;;;;22.40;90.90;;;;;;5057891;28;19963;-96
2022/08/18 00:09:06;;;;;;;;;;;22.30;91.00;;;;;;5057863;28;20323;-96
2022/08/18 00:11:34;;;;;;;;;;;22.20;91.00;;;;;;5076120;28;19966;-96
2022/08/18 00:13:59;;;;;;;;;;;22.10;91.00;;;;;;5057813;28;19968;-95
2022/08/18 00:16:25;;;;;;;;;;;22.10;91.30;;;;;;5075971;28;20451;-96
2022/08/18 00:18:51;;;;;;;;;;;22.00;91.70;;;;;;5075664;28;19992;-96
2022/08/18 00:21:16;;;;;;;;;;;22.00;92.00;;;;;;5075941;28;19935;-96
2022/08/18 00:23:42;;;;;;;;;;;22.00;92.10;;;;;;5075871;28;19980;-96
2022/08/18 00:26:08;;;;;;;;;;;22.10;92.00;;;;;;5076018;28;20358;-96
2022/08/18 00:28:33;;;;;;;;;;;22.10;91.90;;;;;;5075530;28;19943;-96
2022/08/18 00:30:59;;;;;;;;;;;22.10;91.60;;;;;;5076002;28;20436;-96
2022/08/18 00:33:24;;;;;;;;;;;22.20;91.50;;;;;;5075373;28;19947;-96
2022/08/18 00:35:50;;;;;;;;;;;22.20;91.30;;;;;;5057804;28;20471;-95
2022/08/18 00:38:16;;;;;;;;;;;22.20;91.20;;;;;;5075544;28;19946;-96
2022/08/18 00:40:43;;;;;;;;;;;22.20;91.40;;;;;;5075508;28;19947;-96
2022/08/18 00:43:16;;;;;;;;;;;22.20;91.20;;;;;;5075423;28;19946;-96
2022/08/18 00:45:42;;;;;;;;;;;22.30;91.10;;;;;;5075066;28;19991;-96
2022/08/18 00:48:09;;;;;;;;;;;22.20;91.00;;;;;;5057149;28;19996;-96
2022/08/18 00:50:39;;;;;;;;;;;22.30;90.90;;;;;;5075275;28;20327;-96
2022/08/18 00:53:14;;;;;;;;;;;22.20;91.10;;;;;;5075264;28;19980;-96
2022/08/18 00:55:40;;;;;;;;;;;22.20;91.10;;;;;;5075037;28;19980;-96
2022/08/18 00:58:08;;;;;;;;;;;22.10;90.90;;;;;;5057275;28;20408;-95
2022/08/18 01:00:33;;;;;;;;;;;22.00;91.00;;;;;;5056937;28;19945;-96
2022/08/18 01:03:02;;;;;;;;;;;22.00;91.00;;;;;;5075317;28;19948;-96
2022/08/18 01:05:39;;;;;;;;;;;22.00;90.70;;;;;;5074704;28;19985;-96
2022/08/18 01:08:09;;;;;;;;;;;22.00;90.60;;;;;;5075510;28;19941;-96
2022/08/18 01:10:35;;;;;;;;;;;21.90;90.70;;;;;;5074995;28;19976;-95
2022/08/18 01:13:00;;;;;;;;;;;21.80;90.90;;;;;;5074865;28;20022;-96
2022/08/18 01:15:27;;;;;;;;;;;21.90;91.20;;;;;;5074715;28;19942;-96
2022/08/18 01:23:38;;;;;;;;;;;21.80;91.70;;;;;;5075000;28;19960;-96
2022/08/18 01:26:03;;;;;;;;;;;21.70;91.90;;;;;;5074523;28;20002;-96
2022/08/18 01:28:31;;;;;;;;;;;21.70;92.00;;;;;;5056335;28;19948;-96
2022/08/18 01:30:57;;;;;;;;;;;21.70;92.20;;;;;;5074840;28;19934;-96
2022/08/18 01:33:31;;;;;;;;;;;21.80;92.10;;;;;;5074273;28;19986;-96
2022/08/18 01:36:02;;;;;;;;;;;21.80;91.70;;;;;;5056180;28;20305;-96
2022/08/18 01:38:30;;;;;;;;;;;21.90;91.60;;;;;;5074736;28;19940;-96
2022/08/18 01:40:56;;;;;;;;;;;21.90;91.50;;;;;;5056202;28;19951;-96
2022/08/18 01:43:21;;;;;;;;;;;21.80;91.40;;;;;;5074383;28;20276;-95
2022/08/18 01:45:47;;;;;;;;;;;21.80;91.50;;;;;;5073982;28;20002;-96
2022/08/18 01:48:13;;;;;;;;;;;21.80;91.30;;;;;;5074404;28;19934;-96
2022/08/18 01:50:40;;;;;;;;;;;21.80;91.20;;;;;;5074713;28;19941;-96
2022/08/18 01:53:06;;;;;;;;;;;21.80;91.20;;;;;;5074839;28;19947;-96
2022/08/18 01:55:34;;;;;;;;;;;21.80;91.50;;;;;;5056538;28;19979;-96
2022/08/18 01:58:00;;;;;;;;;;;21.90;91.50;;;;;;5074510;28;19936;-96
2022/08/18 02:00:26;;;;;;;;;;;21.80;91.60;;;;;;5074718;28;19940;-96
2022/08/18 02:02:52;;;;;;;;;;;21.80;91.80;;;;;;5074308;28;20400;-96
2022/08/18 02:05:21;;;;;;;;;;;21.80;91.60;;;;;;5056185;28;19943;-96
2022/08/18 02:07:47;;;;;;;;;;;21.80;91.80;;;;;;5075194;28;19957;-96
2022/08/18 02:10:13;;;;;;;;;;;21.80;91.90;;;;;;5074317;28;20135;-96
2022/08/18 02:12:39;;;;;;;;;;;21.90;91.80;;;;;;5056406;28;19943;-95
2022/08/18 02:15:06;;;;;;;;;;;22.00;91.90;;;;;;5056678;28;19992;-96
2022/08/18 02:17:38;;;;;;;;;;;22.10;92.10;;;;;;5074432;28;19938;-96
2022/08/18 02:20:04;;;;;;;;;;;22.10;92.10;;;;;;5055774;28;19945;-96
2022/08/18 02:22:29;;;;;;;;;;;22.10;92.10;;;;;;5074582;28;20019;-96
2022/08/18 02:24:55;;;;;;;;;;;22.10;92.00;;;;;;5073694;28;20017;-96
2022/08/18 02:27:21;;;;;;;;;;;22.00;91.90;;;;;;5073847;28;19962;-96
2022/08/18 02:29:47;;;;;;;;;;;22.00;92.00;;;;;;5073916;28;19985;-96
2022/08/18 02:32:12;;;;;;;;;;;21.90;92.10;;;;;;5074199;28;19940;-96
2022/08/18 02:34:39;;;;;;;;;;;21.90;92.30;;;;;;5073581;28;19936;-95
2022/08/18 02:37:05;;;;;;;;;;;22.00;92.50;;;;;;5074111;28;19956;-96
2022/08/18 02:39:33;;;;;;;;;;;22.00;92.50;;;;;;5055548;28;19944;-96
2022/08/18 02:41:58;;;;;;;;;;;22.10;92.40;;;;;;5074055;28;19977;-95
2022/08/18 02:44:24;;;;;;;;;;;22.10;92.40;;;;;;5073488;28;20403;-96
2022/08/18 02:46:53;;;;;;;;;;;22.20;92.60;;;;;;5073682;28;20293;-96
2022/08/18 02:49:19;;;;;;;;;;;22.30;92.60;;;;;;5073452;28;19947;-95
2022/08/18 02:51:45;;;;;;;;;;;22.40;92.50;;;;;;5073751;28;19941;-96
2022/08/18 02:54:10;;;;;;;;;;;22.40;92.40;;;;;;5073542;28;20027;-96
2022/08/18 02:56:36;;;;;;;;;;;22.50;92.30;;;;;;5055197;28;20076;-96
2022/08/18 02:59:06;;;;;;;;;;;22.60;92.30;;;;;;5073246;28;20299;-96
2022/08/18 03:01:36;;;;;;;;;;;22.60;92.10;;;;;;5056234;28;19979;-96
2022/08/18 03:04:01;;;;;;;;;;;22.70;92.00;;;;;;5073307;28;20422;-96
2022/08/18 03:06:27;;;;;;;;;;;22.80;91.80;;;;;;5073527;28;19960;-96
2022/08/18 03:08:53;;;;;;;;;;;22.80;91.50;;;;;;5073346;28;19950;-96
2022/08/18 03:11:20;;;;;;;;;;;22.90;91.10;;;;;;5073828;28;19943;-96
2022/08/18 03:13:47;;;;;;;;;;;22.90;90.90;;;;;;5073526;28;19950;-96
2022/08/18 03:16:13;;;;;;;;;;;22.90;90.70;;;;;;5075526;28;20059;-96
2022/08/18 03:18:40;;;;;;;;;;;22.90;90.50;;;;;;5077071;28;19932;-95
2022/08/18 03:21:07;;;;;;;;;;;22.80;90.50;;;;;;5077068;28;20101;-96
2022/08/18 03:23:32;;;;;;;;;;;22.90;90.60;;;;;;5076970;28;20278;-96
2022/08/18 03:25:58;;;;;;;;;;;22.80;90.60;;;;;;5076859;28;19943;-96
2022/08/18 03:28:23;;;;;;;;;;;22.80;90.60;;;;;;5076883;28;19945;-96
2022/08/18 03:30:49;;;;;;;;;;;22.70;90.80;;;;;;5076854;28;20468;-96
2022/08/18 03:33:14;;;;;;;;;;;22.70;91.10;;;;;;5076513;28;19950;-96
2022/08/18 03:35:40;;;;;;;;;;;22.50;91.40;;;;;;5058508;28;19986;-96
2022/08/18 03:38:06;;;;;;;;;;;22.50;91.70;;;;;;5076773;28;20312;-96
2022/08/18 03:40:32;;;;;;;;;;;22.60;91.90;;;;;;5058793;28;19942;-95
2022/08/18 03:42:58;;;;;;;;;;;22.50;92.20;;;;;;5076668;28;19949;-96
2022/08/18 03:45:27;;;;;;;;;;;22.40;92.50;;;;;;5058412;28;19949;-95
2022/08/18 03:47:52;;;;;;;;;;;22.30;92.80;;;;;;5076798;28;19959;-96
2022/08/18 03:50:18;;;;;;;;;;;22.30;93.00;;;;;;5058343;28;19949;-95
2022/08/18 03:52:47;;;;;;;;;;;22.10;93.30;;;;;;5077891;28;19948;-95
2022/08/18 03:55:14;;;;;;;;;;;21.90;93.80;;;;;;5060354;28;20028;-95
2022/08/18 03:57:41;;;;;;;;;;;21.80;93.70;;;;;;5061711;28;19987;-96
2022/08/18 04:00:08;;;;;;;;;;;21.80;93.90;;;;;;5084855;28;19948;-96
2022/08/18 04:02:34;;;;;;;;;;;21.80;94.80;;;;;;5077834;28;19947;-94
2022/08/18 04:05:00;;;;;;;;;;;21.30;94.80;;;;;;5075267;28;19968;-95
2022/08/18 04:07:26;;;;;;;;;;;21.10;95.20;;;;;;5057649;28;20076;-94
2022/08/18 04:09:52;;;;;;;;;;;20.80;95.00;;;;;;5058218;28;19993;-96
2022/08/18 04:12:18;;;;;;;;;;;20.80;96.00;;;;;;5075930;28;20012;-95
2022/08/18 04:14:46;;;;;;;;;;;20.80;96.10;;;;;;5075707;28;19936;-95
2022/08/18 04:17:13;;;;;;;;;;;20.70;95.90;;;;;;5076125;28;19938;-95
2022/08/18 04:19:39;;;;;;;;;;;20.80;96.00;;;;;;5075886;28;19948;-95
2022/08/18 04:22:05;;;;;;;;;;;20.80;96.10;;;;;;5075635;28;19944;-95
2022/08/18 04:24:31;;;;;;;;;;;20.80;96.00;;;;;;5075496;28;19936;-95
2022/08/18 04:26:58;;;;;;;;;;;20.70;95.70;;;;;;5056657;28;19968;-94
2022/08/18 04:29:23;;;;;;;;;;;20.70;95.60;;;;;;5074801;28;19946;-94
2022/08/18 04:31:50;;;;;;;;;;;20.60;95.50;;;;;;5074882;28;19946;-94
2022/08/18 04:34:16;;;;;;;;;;;20.60;95.70;;;;;;5075122;28;19979;-94
2022/08/18 04:36:42;;;;;;;;;;;20.60;95.50;;;;;;5074868;28;20000;-94
2022/08/18 04:39:09;;;;;;;;;;;20.50;95.40;;;;;;5056751;28;19975;-94
2022/08/18 04:41:35;;;;;;;;;;;20.40;95.10;;;;;;5074816;28;20096;-94
2022/08/18 04:44:03;;;;;;;;;;;20.40;95.00;;;;;;5074798;28;19940;-94
2022/08/18 04:46:29;;;;;;;;;;;20.30;94.90;;;;;;5074623;28;20010;-94
2022/08/18 04:48:57;;;;;;;;;;;20.30;94.90;;;;;;5074445;28;19967;-94
2022/08/18 04:51:24;;;;;;;;;;;20.30;94.80;;;;;;5074787;28;20032;-94
2022/08/18 04:53:50;;;;;;;;;;;20.20;94.60;;;;;;5074116;28;19952;-94
2022/08/18 04:56:19;;;;;;;;;;;20.20;94.50;;;;;;5074232;28;20348;-94
2022/08/18 04:58:51;;;;;;;;;;;20.20;94.40;;;;;;5074043;28;19988;-95
2022/08/18 05:01:17;;;;;;;;;;;20.20;94.20;;;;;;5074207;28;19954;-94
2022/08/18 05:03:43;;;;;;;;;;;20.20;93.80;;;;;;5073872;28;19983;-94
2022/08/18 05:06:09;;;;;;;;;;;20.10;93.30;;;;;;5074345;28;19972;-93
2022/08/18 05:08:34;;;;;;;;;;;20.10;92.70;;;;;;5073861;28;20034;-94
2022/08/18 05:11:00;;;;;;;;;;;20.00;92.10;;;;;;5073859;28;20388;-93
2022/08/18 05:13:26;;;;;;;;;;;20.00;91.80;;;;;;5074131;28;19944;-93
2022/08/18 05:15:52;;;;;;;;;;;20.10;91.30;;;;;;5074086;28;19943;-94
2022/08/18 05:18:23;;;;;;;;;;;20.20;90.90;;;;;;5073666;28;19939;-94
2022/08/18 05:20:51;;;;;;;;;;;20.20;90.70;;;;;;5074006;28;19943;-94
2022/08/18 05:23:20;;;;;;;;;;;20.30;90.60;;;;;;5073930;28;19943;-94
2022/08/18 05:25:46;;;;;;;;;;;20.30;90.20;;;;;;5074066;28;19947;-95
2022/08/18 05:28:13;;;;;;;;;;;20.30;90.10;;;;;;5074190;28;19959;-95
2022/08/18 05:30:39;;;;;;;;;;;20.30;90.10;;;;;;5074352;28;19941;-95
2022/08/18 05:33:06;;;;;;;;;;;20.30;90.70;;;;;;5074232;28;19934;-95
2022/08/18 05:35:43;;;;;;;;;;;20.30;91.50;;;;;;5073967;28;19946;-96
2022/08/18 05:38:14;;;;;;;;;;;20.40;91.30;;;;;;5073467;28;19933;-94
2022/08/18 05:40:41;;;;;;;;;;;20.30;90.80;;;;;;5073964;28;20005;-95
2022/08/18 05:43:08;;;;;;;;;;;20.30;90.70;;;;;;5074213;28;19942;-95
2022/08/18 05:45:33;;;;;;;;;;;20.30;90.90;;;;;;5074094;28;20037;-94
2022/08/18 05:48:00;;;;;;;;;;;20.40;91.70;;;;;;5055904;28;20063;-95
2022/08/18 05:50:26;;;;;;;;;;;20.40;91.60;;;;;;5074234;28;19966;-95
2022/08/18 05:53:02;;;;;;;;;;;20.40;91.40;;;;;;5073869;28;19942;-95
2022/08/18 05:58:17;;;;;;;;;;;20.60;91.30;;;;;;5089178;28;19959;-96
2022/08/18 06:00:52;;;;;;;;;;;20.60;91.30;;;;;;5089064;28;20188;-96
2022/08/18 06:03:38;;;;;;;;;;;20.80;91.50;;;;;;5089875;28;19942;-96
2022/08/18 06:06:07;;;;;;;;;;;20.80;91.30;;;;;;5076637;28;19941;-96
2022/08/18 06:08:55;;;;;;;;;;;20.70;90.60;;;;;;5084196;28;20028;-96
2022/08/18 06:11:21;;;;;;;;;;;20.60;90.50;;;;;;5089588;28;19953;-96
2022/08/18 06:13:47;;;;;;;;;;;20.80;90.50;;;;;;5091126;28;19966;-96
2022/08/18 06:16:13;;;;;;;;;;;20.80;90.00;;;;;;5089335;28;19943;-96
2022/08/18 06:18:44;;;;;;;;;;;20.90;89.80;;;;;;5089326;28;19941;-96
2022/08/18 06:21:39;;;;;;;;;;;21.10;89.70;;;;;;5087931;28;19982;-96
2022/08/18 06:24:08;;;;;;;;;;;21.20;89.50;;;;;;5074476;28;19950;-96
2022/08/18 06:26:54;;;;;;;;;;;21.40;89.00;;;;;;5105228;28;19974;-96
2022/08/18 06:29:36;;;;;;;;;;;21.40;88.80;;;;;;5089883;28;20008;-96
2022/08/18 06:32:27;;;;;;;;;;;21.50;88.70;;;;;;5091296;28;19978;-96
2022/08/18 06:35:11;;;;;;;;;;;21.60;88.70;;;;;;5091141;28;19979;-96
2022/08/18 06:40:46;;;;;;;;;;;21.70;87.50;;;;;;5092300;28;19987;-96
2022/08/18 06:43:20;;;;;;;;;;;21.70;87.50;;;;;;5093209;28;19943;-96
2022/08/18 06:45:51;;;;;;;;;;;21.70;87.20;;;;;;5093060;28;19991;-96
2022/08/18 06:48:24;;;;;;;;;;;21.70;86.60;;;;;;5093632;28;19958;-96
2022/08/18 06:50:59;;;;;;;;;;;21.70;86.80;;;;;;5096736;28;19946;-96
2022/08/18 06:53:51;;;;;;;;;;;21.80;86.90;;;;;;5098675;28;19965;-96
2022/08/18 06:56:33;;;;;;;;;;;21.80;86.80;;;;;;5098308;28;19978;-96
2022/08/18 06:59:24;;;;;;;;;;;22.00;86.90;;;;;;5098768;28;19967;-96
2022/08/18 07:01:59;;;;;;;;;;;22.10;87.10;;;;;;5098888;28;20000;-96
2022/08/18 07:04:44;;;;;;;;;;;22.30;86.70;;;;;;5101225;28;19944;-97
2022/08/18 07:07:31;;;;;;;;;;;22.50;86.10;;;;;;5082869;28;20013;-96
2022/08/18 07:09:58;;;;;;;;;;;22.60;85.00;;;;;;5099117;28;19961;-96
2022/08/18 07:12:31;;;;;;;;;;;22.80;84.40;;;;;;5099363;28;19998;-96
2022/08/18 07:15:01;;;;;;;;;;;22.90;84.00;;;;;;5096889;28;19936;-96
2022/08/18 07:17:29;;;;;;;;;;;23.00;82.60;;;;;;5099749;28;19946;-96
2022/08/18 07:20:07;;;;;;;;;;;23.00;81.90;;;;;;5099965;28;19950;-96
2022/08/18 07:22:59;;;;;;;;;;;23.20;80.90;;;;;;5100286;28;19938;-96
2022/08/18 07:25:33;;;;;;;;;;;23.30;80.90;;;;;;5100378;28;19931;-96
2022/08/18 07:28:03;;;;;;;;;;;23.40;81.70;;;;;;5098629;28;19974;-96
2022/08/18 07:30:36;;;;;;;;;;;23.50;80.90;;;;;;5100579;28;19950;-96
2022/08/18 07:33:15;;;;;;;;;;;23.40;80.20;;;;;;5100392;28;19959;-96
2022/08/18 07:35:49;;;;;;;;;;;23.50;80.30;;;;;;5099920;28;19994;-96
2022/08/18 07:38:23;;;;;;;;;;;23.50;80.40;;;;;;5099395;28;19982;-96
2022/08/18 07:40:55;;;;;;;;;;;23.60;80.10;;;;;;5099209;28;19971;-96
2022/08/18 07:43:37;;;;;;;;;;;23.70;81.50;;;;;;5099959;28;19984;-96
2022/08/18 07:46:30;;;;;;;;;;;23.70;80.50;;;;;;5100533;28;20022;-96
2022/08/18 07:49:31;;;;;;;;;;;23.50;80.50;;;;;;5100664;28;19944;-96
2022/08/18 07:52:12;;;;;;;;;;;23.60;79.70;;;;;;5094480;28;19947;-96
2022/08/18 07:54:47;;;;;;;;;;;23.50;79.50;;;;;;5099027;28;20009;-96
2022/08/18 07:57:28;;;;;;;;;;;23.40;83.20;;;;;;5097216;28;19959;-96
2022/08/18 08:00:05;;;;;;;;;;;23.20;81.60;;;;;;5096141;28;19940;-96
2022/08/18 08:02:42;;;;;;;;;;;23.00;83.20;;;;;;5097010;28;19941;-96
2022/08/18 08:05:28;;;;;;;;;;;23.00;82.80;;;;;;5098157;28;19945;-96
2022/08/18 08:07:57;;;;;;;;;;;23.00;83.90;;;;;;5095176;28;19968;-96
2022/08/18 08:10:34;;;;;;;;;;;23.00;84.30;;;;;;5094705;28;19993;-97
2022/08/18 08:13:01;;;;;;;;;;;22.80;85.00;;;;;;5095104;28;19944;-96
2022/08/18 08:15:36;;;;;;;;;;;22.50;83.80;;;;;;5097318;28;19946;-96
2022/08/18 08:18:15;;;;;;;;;;;22.30;84.30;;;;;;5097117;28;19946;-96
2022/08/18 08:20:50;;;;;;;;;;;22.00;84.00;;;;;;5098905;28;19940;-96
2022/08/18 08:23:17;;;;;;;;;;;22.00;83.30;;;;;;5098565;28;19945;-96
2022/08/18 08:26:03;;;;;;;;;;;22.00;83.50;;;;;;5077797;28;19953;-96
2022/08/18 08:28:50;;;;;;;;;;;22.00;83.60;;;;;;5061157;28;19939;-96
2022/08/18 08:31:53;;;;;;;;;;;21.90;83.70;;;;;;5018999;28;19972;-96
2022/08/18 08:34:31;;;;;;;;;;;21.80;85.10;;;;;;4989291;28;19956;-96
2022/08/18 08:37:44;;;;;;;;;;;21.60;84.40;;;;;;5007606;28;19960;-96
2022/08/18 08:40:32;;;;;;;;;;;21.70;85.00;;;;;;5017995;28;20009;-96
2022/08/18 08:43:11;;;;;;;;;;;21.50;85.00;;;;;;5062197;28;19954;-96
2022/08/18 08:45:52;;;;;;;;;;;21.50;85.00;;;;;;5061604;28;19981;-96
2022/08/18 08:48:39;;;;;;;;;;;21.50;84.50;;;;;;5062162;28;19983;-96
2022/08/18 08:51:24;;;;;;;;;;;21.70;84.10;;;;;;5061961;28;19954;-96
2022/08/18 08:54:08;;;;;;;;;;;21.80;84.10;;;;;;5078568;28;19964;-96
2022/08/18 08:56:46;;;;;;;;;;;22.10;82.90;;;;;;5060739;28;20019;-96
2022/08/18 08:59:23;;;;;;;;;;;22.30;82.30;;;;;;5077276;28;20015;-96
2022/08/18 09:01:57;;;;;;;;;;;22.60;81.90;;;;;;5060658;28;19944;-96
2022/08/18 09:04:39;;;;;;;;;;;22.80;80.60;;;;;;5097449;28;19948;-96
2022/08/18 09:07:22;;;;;;;;;;;23.00;79.40;;;;;;5096403;28;19979;-96
2022/08/18 09:10:21;;;;;;;;;;;23.30;78.80;;;;;;5097471;28;19959;-96
2022/08/18 09:13:07;;;;;;;;;;;23.60;77.60;;;;;;5088783;28;19943;-96
2022/08/18 09:15:50;;;;;;;;;;;23.80;76.20;;;;;;5098547;28;19951;-96
2022/08/18 09:18:28;;;;;;;;;;;24.00;75.60;;;;;;5098299;28;19956;-96
2022/08/18 09:21:22;;;;;;;;;;;24.20;75.00;;;;;;5097817;23;20062;-95
2022/08/18 09:23:50;;;;;;;;;;;24.40;73.80;;;;;;5056905;28;19951;-96
2022/08/18 09:26:39;;;;;;;;;;;24.50;73.50;;;;;;5075124;28;19944;-94
2022/08/18 09:29:17;;;;;;;;;;;24.70;72.10;;;;;;5074964;28;19943;-95
2022/08/18 09:31:44;;;;;;;;;;;25.00;71.00;;;;;;5074947;28;19944;-95
2022/08/18 09:34:09;;;;;;;;;;;25.20;70.20;;;;;;5075085;28;19940;-95
2022/08/18 09:36:35;;;;;;;;;;;25.30;69.30;;;;;;5057067;28;20371;-96
2022/08/18 09:42:07;;;;;;;;;;;25.50;67.90;;;;;;5075252;28;20049;-96
2022/08/18 09:44:44;;;;;;;;;;;25.60;67.60;;;;;;5074755;28;19981;-95
2022/08/18 09:47:10;;;;;;;;;;;25.60;67.10;;;;;;5074817;28;19959;-95
2022/08/18 09:49:41;;;;;;;;;;;25.60;68.30;;;;;;5056602;28;19940;-95
2022/08/18 09:52:19;;;;;;;;;;;25.50;68.70;;;;;;5056523;28;20393;-96
2022/08/18 09:54:57;;;;;;;;;;;25.50;68.90;;;;;;5074569;28;19947;-96
2022/08/18 09:57:23;;;;;;;;;;;25.40;69.10;;;;;;5074826;28;20006;-95
2022/08/18 09:59:48;;;;;;;;;;;25.30;70.20;;;;;;5074852;28;20392;-96
2022/08/18 10:02:30;;;;;;;;;;;25.20;71.20;;;;;;5056980;28;20042;-95
2022/08/18 10:05:14;;;;;;;;;;;25.00;72.60;;;;;;5074941;28;19941;-95
2022/08/18 10:07:42;;;;;;;;;;;24.80;73.80;;;;;;5055963;28;19956;-95
2022/08/18 10:10:26;;;;;;;;;;;24.60;74.90;;;;;;5056396;28;19944;-95
2022/08/18 10:12:55;;;;;;;;;;;24.30;76.20;;;;;;5074491;28;19941;-95
2022/08/18 10:15:41;;;;;;;;;;;24.20;76.90;;;;;;5074225;28;19948;-95
2022/08/18 10:18:19;;;;;;;;;;;24.20;78.90;;;;;;5056598;28;19998;-96
2022/08/18 10:21:04;;;;;;;;;;;24.00;80.30;;;;;;5075240;28;19985;-95
2022/08/18 10:23:49;;;;;;;;;;;23.60;81.60;;;;;;5049550;28;19947;-95
2022/08/18 10:26:29;;;;;;;;;;;23.00;83.40;;;;;;5078265;28;19990;-95
2022/08/18 10:28:59;;;;;;;;;;;22.60;84.40;;;;;;5060795;28;19945;-95
2022/08/18 10:31:25;;;;;;;;;;;22.40;85.90;;;;;;5060688;28;19946;-95
2022/08/18 10:33:54;;;;;;;;;;;22.30;87.10;;;;;;5079130;28;19939;-95
2022/08/18 10:36:38;;;;;;;;;;;22.30;87.10;;;;;;5060484;28;19967;-95
2022/08/18 10:39:10;;;;;;;;;;;22.30;86.80;;;;;;5078954;28;19944;-95
2022/08/18 10:41:36;;;;;;;;;;;22.20;87.50;;;;;;5060119;28;19984;-95
2022/08/18 10:44:02;;;;;;;;;;;22.20;88.00;;;;;;5078352;28;19949;-95
2022/08/18 10:46:31;;;;;;;;;;;22.20;88.50;;;;;;5078255;28;19956;-94
2022/08/18 10:49:11;;;;;;;;;;;22.20;89.10;;;;;;5077983;28;19978;-95
2022/08/18 10:51:39;;;;;;;;;;;22.10;89.40;;;;;;5078370;28;20060;-95
2022/08/18 10:54:17;;;;;;;;;;;22.10;89.30;;;;;;5077964;28;19940;-94
2022/08/18 10:56:51;;;;;;;;;;;22.20;89.40;;;;;;5077648;28;19947;-94
2022/08/18 10:59:21;;;;;;;;;;;21.90;89.40;;;;;;5076949;28;19943;-94
2022/08/18 11:01:47;;;;;;;;;;;21.80;88.80;;;;;;5076849;28;19986;-95
2022/08/18 11:04:27;;;;;;;;;;;21.60;91.10;;;;;;5077318;28;20034;-94
2022/08/18 11:07:02;;;;;;;;;;;21.50;93.00;;;;;;5077012;28;19972;-95
2022/08/18 11:09:29;;;;;;;;;;;21.30;92.70;;;;;;5077100;28;19941;-95
2022/08/18 11:11:56;;;;;;;;;;;21.30;92.80;;;;;;5059044;28;19984;-93
2022/08/18 11:14:22;;;;;;;;;;;21.10;92.70;;;;;;5077390;28;19941;-95
2022/08/18 11:16:54;;;;;;;;;;;21.00;92.80;;;;;;5059040;28;19949;-95
2022/08/18 11:19:21;;;;;;;;;;;20.90;92.70;;;;;;5058792;28;19951;-94
2022/08/18 11:21:47;;;;;;;;;;;20.90;92.50;;;;;;5058953;28;20141;-95
2022/08/18 11:24:16;;;;;;;;;;;20.90;92.50;;;;;;5076863;28;19939;-95
2022/08/18 11:26:47;;;;;;;;;;;20.90;92.50;;;;;;5059025;28;20323;-95
2022/08/18 11:29:34;;;;;;;;;;;20.90;92.60;;;;;;5058872;28;20040;-95
2022/08/18 11:32:06;;;;;;;;;;;20.90;91.80;;;;;;5058196;28;19984;-95
2022/08/18 11:34:34;;;;;;;;;;;20.90;90.60;;;;;;5076687;28;19968;-95
2022/08/18 11:37:02;;;;;;;;;;;20.80;90.10;;;;;;5075398;28;19956;-94
2022/08/18 11:39:28;;;;;;;;;;;20.80;90.40;;;;;;5076378;28;19938;-95
2022/08/18 11:41:54;;;;;;;;;;;20.90;90.20;;;;;;5076525;28;19986;-94
2022/08/18 11:44:23;;;;;;;;;;;20.90;90.40;;;;;;5076267;28;20017;-95
2022/08/18 11:46:53;;;;;;;;;;;21.00;90.30;;;;;;5076119;28;19957;-95
2022/08/18 11:49:25;;;;;;;;;;;21.00;89.90;;;;;;5076158;28;19937;-94
2022/08/18 11:51:58;;;;;;;;;;;21.00;89.50;;;;;;5075902;28;19990;-94
2022/08/18 11:54:32;;;;;;;;;;;21.10;89.20;;;;;;5076127;28;19939;-94
2022/08/18 11:57:17;;;;;;;;;;;21.10;88.90;;;;;;5075945;28;20369;-94
2022/08/18 11:59:42;;;;;;;;;;;21.10;88.00;;;;;;5075803;28;20462;-94
2022/08/18 12:02:09;;;;;;;;;;;21.20;88.40;;;;;;5075835;28;19942;-94
2022/08/18 12:04:37;;;;;;;;;;;21.30;89.40;;;;;;5075797;28;19940;-94
2022/08/18 12:07:08;;;;;;;;;;;21.20;89.10;;;;;;5075352;28;20003;-93
2022/08/18 12:09:34;;;;;;;;;;;21.00;89.60;;;;;;5057625;28;19944;-93
2022/08/18 12:12:03;;;;;;;;;;;20.90;90.00;;;;;;5075511;28;20392;-94
2022/08/18 12:14:50;;;;;;;;;;;20.80;90.30;;;;;;5075313;28;19943;-94
2022/08/18 12:17:16;;;;;;;;;;;20.80;90.40;;;;;;5055730;28;19950;-94
2022/08/18 12:19:42;;;;;;;;;;;20.90;90.70;;;;;;5055387;28;20345;-94
2022/08/18 12:22:15;;;;;;;;;;;21.00;90.60;;;;;;5054062;28;20067;-94
2022/08/18 12:24:41;;;;;;;;;;;21.20;90.10;;;;;;5075531;28;19981;-94
2022/08/18 12:27:07;;;;;;;;;;;21.50;89.80;;;;;;5075050;28;20458;-95
2022/08/18 12:29:33;;;;;;;;;;;21.80;88.10;;;;;;5075459;28;19978;-95
2022/08/18 12:31:58;;;;;;;;;;;22.10;87.40;;;;;;5075457;28;19945;-95
2022/08/18 12:34:25;;;;;;;;;;;22.50;86.00;;;;;;5075381;28;19971;-95
2022/08/18 12:36:53;;;;;;;;;;;22.80;85.30;;;;;;5057823;28;19964;-95
2022/08/18 12:39:19;;;;;;;;;;;23.10;83.10;;;;;;5075447;28;19944;-95
2022/08/18 12:41:46;;;;;;;;;;;23.50;82.60;;;;;;5075432;28;20043;-95
2022/08/18 12:44:11;;;;;;;;;;;23.80;80.70;;;;;;5075361;28;19940;-94
2022/08/18 12:46:38;;;;;;;;;;;24.10;79.50;;;;;;5057218;28;19965;-95
2022/08/18 12:49:05;;;;;;;;;;;24.30;79.10;;;;;;5075089;28;20381;-95
2022/08/18 12:51:31;;;;;;;;;;;24.60;79.10;;;;;;5057485;28;19946;-95
2022/08/18 12:53:57;;;;;;;;;;;24.70;78.10;;;;;;5057089;28;19945;-95
2022/08/18 12:56:25;;;;;;;;;;;24.80;78.10;;;;;;5075571;28;20029;-95
2022/08/18 12:58:51;;;;;;;;;;;24.90;75.90;;;;;;5057236;28;19947;-95
2022/08/18 13:01:17;;;;;;;;;;;25.20;77.90;;;;;;5075002;28;20003;-95
2022/08/18 13:03:44;;;;;;;;;;;25.50;75.50;;;;;;5074875;28;19965;-95
2022/08/18 13:06:10;;;;;;;;;;;26.10;73.70;;;;;;5074743;28;19940;-94
2022/08/18 13:08:36;;;;;;;;;;;26.70;71.50;;;;;;5056820;28;19945;-95
2022/08/18 13:11:09;;;;;;;;;;;27.10;71.00;;;;;;5057003;28;20401;-95
2022/08/18 13:13:35;;;;;;;;;;;27.70;68.30;;;;;;5074638;28;19936;-94
2022/08/18 13:16:00;;;;;;;;;;;28.20;65.60;;;;;;5074756;28;19945;-94
2022/08/18 13:18:26;;;;;;;;;;;28.70;64.30;;;;;;5056572;28;20345;-94
2022/08/18 13:20:52;;;;;;;;;;;29.00;63.00;;;;;;5074332;28;20385;-94
2022/08/18 13:23:18;;;;;;;;;;;29.30;61.20;;;;;;5056559;28;19947;-94
2022/08/18 13:25:44;;;;;;;;;;;29.50;60.50;;;;;;5074384;28;20321;-94
2022/08/18 13:28:10;;;;;;;;;;;29.60;59.10;;;;;;5074294;28;19964;-94
2022/08/18 13:30:36;;;;;;;;;;;29.70;59.30;;;;;;5056352;28;19942;-94
2022/08/18 13:33:02;;;;;;;;;;;29.60;59.10;;;;;;5074339;28;19944;-94
2022/08/18 13:35:28;;;;;;;;;;;29.20;60.00;;;;;;5074335;28;20282;-94
2022/08/18 13:37:55;;;;;;;;;;;28.80;60.80;;;;;;5056247;28;19969;-94
2022/08/18 13:40:21;;;;;;;;;;;28.40;61.00;;;;;;5056254;28;19940;-94
2022/08/18 13:42:48;;;;;;;;;;;28.20;62.60;;;;;;5056351;28;19974;-94
2022/08/18 13:45:15;;;;;;;;;;;28.40;61.90;;;;;;5074233;28;19940;-96
2022/08/18 13:47:41;;;;;;;;;;;28.60;61.50;;;;;;5056353;28;19976;-95
2022/08/18 13:50:07;;;;;;;;;;;28.40;61.20;;;;;;5074115;28;19944;-95
2022/08/18 13:52:32;;;;;;;;;;;28.80;59.90;;;;;;5074396;28;19944;-95
2022/08/18 13:54:58;;;;;;;;;;;29.70;58.30;;;;;;5074214;28;20395;-95
2022/08/18 13:57:23;;;;;;;;;;;30.40;55.90;;;;;;5074472;28;19936;-95
2022/08/18 13:59:50;;;;;;;;;;;31.20;54.00;;;;;;5055395;28;20014;-96
2022/08/18 14:02:15;;;;;;;;;;;30.80;53.40;;;;;;5074248;28;19939;-95
2022/08/18 14:04:42;;;;;;;;;;;29.70;57.00;;;;;;5074225;28;19944;-96
2022/08/18 14:07:10;;;;;;;;;;;29.00;58.50;;;;;;5055890;28;20339;-95
2022/08/18 14:09:36;;;;;;;;;;;28.10;60.40;;;;;;5056016;28;19946;-95
2022/08/18 14:12:04;;;;;;;;;;;27.70;62.00;;;;;;5074362;28;19951;-95
2022/08/18 14:14:30;;;;;;;;;;;27.30;63.00;;;;;;5056051;28;19991;-95
2022/08/18 14:16:55;;;;;;;;;;;26.80;64.70;;;;;;5057207;28;19947;-95
2022/08/18 14:27:36;;;;;;;;;;;26.50;65.90;;;;;;5074903;28;19961;-96
2022/08/18 14:30:08;;;;;;;;;;;26.50;65.20;;;;;;5057651;28;20381;-95
2022/08/18 14:32:34;;;;;;;;;;;26.70;65.30;;;;;;5075022;28;20035;-95
2022/08/18 14:35:00;;;;;;;;;;;27.60;63.30;;;;;;5074202;28;19972;-95
2022/08/18 14:37:27;;;;;;;;;;;29.10;58.90;;;;;;5073862;28;19952;-96
2022/08/18 14:39:52;;;;;;;;;;;30.90;54.20;;;;;;5074150;28;19943;-95
2022/08/18 14:42:19;;;;;;;;;;;32.40;50.50;;;;;;5073970;28;19945;-96
2022/08/18 14:44:46;;;;;;;;;;;33.00;48.00;;;;;;5055857;28;19949;-96
2022/08/18 14:47:12;;;;;;;;;;;33.20;47.80;;;;;;5073905;28;19960;-95
2022/08/18 14:49:38;;;;;;;;;;;33.20;46.60;;;;;;5055775;28;20395;-95
2022/08/18 14:52:04;;;;;;;;;;;32.20;49.10;;;;;;5055763;28;19938;-96
2022/08/18 14:54:31;;;;;;;;;;;31.10;52.00;;;;;;5055937;28;20401;-95
2022/08/18 14:56:57;;;;;;;;;;;30.30;53.60;;;;;;5074098;28;19967;-95
2022/08/18 14:59:23;;;;;;;;;;;28.70;57.70;;;;;;5074298;28;19944;-95